Return to the overview of this dataset or to the list of all FOR816 datasets.


Value filter for entity: Photosynthesis dataset of Beilschmiedi_1267_sun (Tower Trees ECSF, upper platform), Date: 01/12/2014(id: 1148) of dataset: Photosynthesis dataset of Beilschmiedia_1267_sun (Tower Trees ECSF, upper platform), Date: 01/12/2014 (dsid: 1585)

Select attribute to work with:



Order by

Aggregate by date/time

on attribute:

Draw graph of subset

    x     y1     y2  
     
datetime (Date and Time)
PhotoRate (Photosynthesis rate)
LeafCond (Leaf Conductance)
LeafTrans (Leaf transpiration)
temp_leaf (Leaf Temperature)
relh_leaf (Relative humidity of the leaf sample, measured by porometry)
PARi (Photosynthetic active radiation)
ParO (Photosynthetically active radiation)
VpdL (Vapor pressure deficit based on Leaf temp)

Results:

page: 1 / 5 , page size: , max results: 216

datetime PhotoRate LeafCond LeafTrans temp_leaf relh_leaf PARi ParO VpdL TreeID Tree_species
2014-12-01 17:41:30 -0.27 0.432 1.87 19.29 75.23 13.67 21.24 0.39 1267 "Beilschmiedia tovarensis"
2014-12-01 17:48:09 -0.04 0.43 1.862 19.26 75.17 9.07 12.65 0.39 1267 "Beilschmiedia tovarensis"
2014-12-01 17:54:49 -0.521 0.46 1.93 19.24 75.19 3.86 5.58 0.38 1267 "Beilschmiedia tovarensis"
2014-12-01 18:01:29 -0.563 0.461 1.945 19.29 75.29 3.37 4.96 0.38 1267 "Beilschmiedia tovarensis"
2014-12-01 18:08:09 -0.625 0.457 1.93 19.27 75.27 3.38 5.01 0.38 1267 "Beilschmiedia tovarensis"
2014-12-01 18:14:48 -0.872 0.45 1.929 19.32 75.18 1.2 1.94 0.39 1267 "Beilschmiedia tovarensis"
2014-12-01 18:21:27 -0.952 0.345 1.697 19.25 73.83 0.87 1.22 0.43 1267 "Beilschmiedia tovarensis"
2014-12-01 18:28:07 -0.945 0.285 1.471 19.01 73.06 0.35 0.62 0.44 1267 "Beilschmiedia tovarensis"
2014-12-01 18:34:47 -0.975 0.275 1.45 18.98 72.65 0.12 0.1 0.45 1267 "Beilschmiedia tovarensis"
2014-12-01 18:41:27 -0.721 0.248 1.429 19.21 71.91 -0.03 0.13 0.49 1267 "Beilschmiedia tovarensis"
2014-12-01 18:48:06 -0.836 0.14 0.959 19.26 70.5 -0.02 0.05 0.56 1267 "Beilschmiedia tovarensis"
2014-12-01 18:54:44 -0.994 0.085 0.648 19.24 69.06 0.0 0.07 0.61 1267 "Beilschmiedia tovarensis"
2014-12-01 19:01:22 -1.053 0.063 0.508 19.28 68.51 0.0 0.09 0.64 1267 "Beilschmiedia tovarensis"
2014-12-01 19:08:00 -0.982 0.055 0.444 19.33 68.58 0.01 0.06 0.65 1267 "Beilschmiedia tovarensis"
2014-12-01 19:14:37 -0.979 0.053 0.431 19.32 68.41 -0.04 0.1 0.65 1267 "Beilschmiedia tovarensis"
2014-12-01 19:21:14 -0.955 0.049 0.411 19.37 68.13 0.01 0.11 0.66 1267 "Beilschmiedia tovarensis"
2014-12-01 19:27:52 -0.989 0.047 0.397 19.35 68.1 0.03 0.17 0.66 1267 "Beilschmiedia tovarensis"
2014-12-01 19:34:30 -1.122 0.045 0.378 19.42 68.27 0.04 0.11 0.67 1267 "Beilschmiedia tovarensis"
2014-12-01 19:41:07 -0.8 0.044 0.374 19.39 67.93 -0.02 0.09 0.67 1267 "Beilschmiedia tovarensis"
2014-12-01 19:47:44 -1.127 0.04 0.327 19.24 68.3 0.08 0.11 0.65 1267 "Beilschmiedia tovarensis"
2014-12-01 19:54:22 -1.152 0.042 0.35 19.26 68.04 0.05 0.09 0.66 1267 "Beilschmiedia tovarensis"
2014-12-01 20:01:00 -0.995 0.042 0.353 19.3 67.79 -0.01 0.1 0.67 1267 "Beilschmiedia tovarensis"
2014-12-01 20:07:38 -1.013 0.041 0.339 19.24 67.95 -0.01 0.16 0.66 1267 "Beilschmiedia tovarensis"
2014-12-01 20:14:15 -0.869 0.04 0.343 19.29 67.59 -0.03 0.16 0.67 1267 "Beilschmiedia tovarensis"
2014-12-01 20:20:52 -0.909 0.038 0.317 19.25 67.89 0.01 0.08 0.66 1267 "Beilschmiedia tovarensis"
2014-12-01 20:27:30 -0.872 0.04 0.337 19.28 67.97 0.02 0.11 0.66 1267 "Beilschmiedia tovarensis"
2014-12-01 20:34:08 -0.86 0.038 0.318 19.25 67.77 0.0 0.08 0.67 1267 "Beilschmiedia tovarensis"
2014-12-01 20:40:46 -0.573 0.043 0.369 19.27 66.94 0.0 0.07 0.68 1267 "Beilschmiedia tovarensis"
2014-12-01 20:47:23 -0.573 0.04 0.34 19.21 66.99 -0.02 0.17 0.68 1267 "Beilschmiedia tovarensis"
2014-12-01 20:54:01 -0.64 0.038 0.332 19.24 66.86 0.08 0.1 0.69 1267 "Beilschmiedia tovarensis"
2014-12-01 21:00:39 -0.541 0.037 0.322 19.23 67.12 -0.03 0.21 0.68 1267 "Beilschmiedia tovarensis"
2014-12-01 21:07:17 -0.823 0.039 0.337 19.16 66.7 0.02 0.11 0.68 1267 "Beilschmiedia tovarensis"
2014-12-01 21:13:54 -0.792 0.039 0.343 19.26 66.65 -0.04 0.09 0.69 1267 "Beilschmiedia tovarensis"
2014-12-01 21:20:32 -0.639 0.041 0.361 19.28 66.36 -0.01 0.18 0.7 1267 "Beilschmiedia tovarensis"
2014-12-01 21:27:10 -0.938 0.04 0.346 19.2 66.88 0.04 0.16 0.68 1267 "Beilschmiedia tovarensis"
2014-12-01 21:33:48 -0.729 0.04 0.352 19.25 66.44 0.01 0.16 0.7 1267 "Beilschmiedia tovarensis"
2014-12-01 21:40:25 -0.795 0.039 0.343 19.21 66.2 -0.01 0.1 0.7 1267 "Beilschmiedia tovarensis"
2014-12-01 21:47:03 -0.782 0.038 0.341 19.21 65.97 0.03 0.15 0.7 1267 "Beilschmiedia tovarensis"
2014-12-01 21:53:41 -0.972 0.037 0.325 19.19 66.04 0.04 0.13 0.7 1267 "Beilschmiedia tovarensis"
2014-12-01 22:00:19 -0.976 0.033 0.289 19.11 66.09 -0.01 0.08 0.7 1267 "Beilschmiedia tovarensis"
2014-12-01 22:06:56 -0.999 0.037 0.325 19.16 65.86 0.02 0.12 0.7 1267 "Beilschmiedia tovarensis"
2014-12-01 22:13:33 -0.949 0.035 0.31 19.14 65.89 -0.01 0.13 0.7 1267 "Beilschmiedia tovarensis"
2014-12-01 22:20:11 -0.914 0.037 0.331 19.18 65.76 0.02 0.14 0.71 1267 "Beilschmiedia tovarensis"
2014-12-01 22:26:49 -0.886 0.039 0.353 19.23 65.39 -0.03 0.1 0.72 1267 "Beilschmiedia tovarensis"
2014-12-01 22:33:27 -0.797 0.036 0.328 19.13 65.35 0.01 0.06 0.71 1267 "Beilschmiedia tovarensis"
2014-12-01 22:40:04 -0.658 0.035 0.316 19.16 65.53 0.0 0.12 0.71 1267 "Beilschmiedia tovarensis"
2014-12-01 22:46:41 -0.86 0.032 0.283 18.96 65.51 -0.01 0.1 0.7 1267 "Beilschmiedia tovarensis"
2014-12-01 22:53:19 -0.781 0.031 0.278 18.93 65.04 -0.04 0.16 0.7 1267 "Beilschmiedia tovarensis"
2014-12-01 22:59:57 -0.72 0.036 0.316 18.86 64.85 0.08 0.1 0.7 1267 "Beilschmiedia tovarensis"
2014-12-01 23:06:34 -0.788 0.033 0.299 18.86 64.06 -0.03 0.07 0.72 1267 "Beilschmiedia tovarensis"

page: 1 / 5 , max results: 216


Return to the overview of this dataset or to the list of all FOR816 datasets.



Quick search

  • Publications:
  • Datasets:

rnse logo

Radar Network Ecuador - Peru